sensor_id;sensor_type;location;lat;lon;timestamp;pressure;altitude;pressure_sealevel;temperature;humidity
31337;BME280;22846;42.654;23.314;2023-02-15T00:01:45;95642.00;;;22.57;42.71
31337;BME280;22846;42.654;23.314;2023-02-15T00:04:13;95641.63;;;22.55;42.40
31337;BME280;22846;42.654;23.314;2023-02-15T00:06:39;95647.13;;;22.48;42.25
31337;BME280;22846;42.654;23.314;2023-02-15T00:09:05;95653.31;;;22.52;42.57
31337;BME280;22846;42.654;23.314;2023-02-15T00:11:30;95653.31;;;22.52;42.28
31337;BME280;22846;42.654;23.314;2023-02-15T00:14:23;95652.53;;;22.51;42.97
31337;BME280;22846;42.654;23.314;2023-02-15T00:16:51;95656.47;;;22.50;42.69
31337;BME280;22846;42.654;23.314;2023-02-15T00:19:18;95662.28;;;22.49;42.31
31337;BME280;22846;42.654;23.314;2023-02-15T00:21:45;95655.31;;;22.44;42.59
31337;BME280;22846;42.654;23.314;2023-02-15T00:24:13;95669.69;;;22.48;42.50
31337;BME280;22846;42.654;23.314;2023-02-15T00:26:39;95667.38;;;22.47;42.53
31337;BME280;22846;42.654;23.314;2023-02-15T00:29:05;95658.06;;;22.41;42.75
31337;BME280;22846;42.654;23.314;2023-02-15T00:31:32;95667.00;;;22.45;42.76
31337;BME280;22846;42.654;23.314;2023-02-15T00:36:27;95668.56;;;22.42;42.40
31337;BME280;22846;42.654;23.314;2023-02-15T00:38:52;95671.31;;;22.42;42.77
31337;BME280;22846;42.654;23.314;2023-02-15T00:41:17;95663.50;;;22.41;42.65
31337;BME280;22846;42.654;23.314;2023-02-15T00:43:43;95676.75;;;22.39;42.50
31337;BME280;22846;42.654;23.314;2023-02-15T00:46:08;95665.09;;;22.38;42.84
31337;BME280;22846;42.654;23.314;2023-02-15T00:48:34;95636.78;;;22.19;42.62
31337;BME280;22846;42.654;23.314;2023-02-15T00:51:00;95671.72;;;22.37;42.78
31337;BME280;22846;42.654;23.314;2023-02-15T00:53:26;95666.66;;;22.36;42.82
31337;BME280;22846;42.654;23.314;2023-02-15T00:55:52;95662.75;;;22.30;42.70
31337;BME280;22846;42.654;23.314;2023-02-15T00:58:18;95665.53;;;22.33;42.62
31337;BME280;22846;42.654;23.314;2023-02-15T01:00:45;95672.91;;;22.33;42.90
31337;BME280;22846;42.654;23.314;2023-02-15T01:03:12;95672.13;;;22.32;42.47
31337;BME280;22846;42.654;23.314;2023-02-15T01:05:38;95664.34;;;22.31;42.90
31337;BME280;22846;42.654;23.314;2023-02-15T01:08:04;95656.56;;;22.29;42.64
31337;BME280;22846;42.654;23.314;2023-02-15T01:10:29;95661.25;;;22.29;42.58
31337;BME280;22846;42.654;23.314;2023-02-15T01:12:55;95656.19;;;22.27;42.71
31337;BME280;22846;42.654;23.314;2023-02-15T01:15:22;95646.09;;;22.24;43.01
31337;BME280;22846;42.654;23.314;2023-02-15T01:17:47;95657.34;;;22.26;42.89
31337;BME280;22846;42.654;23.314;2023-02-15T01:20:20;95642.25;;;22.15;43.06
31337;BME280;22846;42.654;23.314;2023-02-15T01:22:46;95657.75;;;22.25;42.98
31337;BME280;22846;42.654;23.314;2023-02-15T01:25:12;95665.16;;;22.24;42.80
31337;BME280;22846;42.654;23.314;2023-02-15T01:27:37;95654.25;;;22.24;42.92
31337;BME280;22846;42.654;23.314;2023-02-15T01:30:03;95644.16;;;22.22;42.92
31337;BME280;22846;42.654;23.314;2023-02-15T01:32:30;95649.59;;;22.22;42.74
31337;BME280;22846;42.654;23.314;2023-02-15T01:34:56;95648.06;;;22.21;42.70
31337;BME280;22846;42.654;23.314;2023-02-15T01:37:21;95649.22;;;22.20;42.99
31337;BME280;22846;42.654;23.314;2023-02-15T01:39:46;95649.59;;;22.22;42.87
31337;BME280;22846;42.654;23.314;2023-02-15T01:42:12;95641.06;;;22.20;42.76
31337;BME280;22846;42.654;23.314;2023-02-15T01:44:57;95635.59;;;22.20;43.03
31337;BME280;22846;42.654;23.314;2023-02-15T01:47:31;95637.94;;;22.18;42.94
31337;BME280;22846;42.654;23.314;2023-02-15T01:50:02;95629.78;;;22.18;43.04
31337;BME280;22846;42.654;23.314;2023-02-15T01:52:29;95633.72;;;22.17;43.00
31337;BME280;22846;42.654;23.314;2023-02-15T01:54:54;95630.97;;;22.13;42.74
31337;BME280;22846;42.654;23.314;2023-02-15T01:57:23;95628.28;;;22.10;42.87
31337;BME280;22846;42.654;23.314;2023-02-15T01:59:55;95624.34;;;22.14;42.91
31337;BME280;22846;42.654;23.314;2023-02-15T02:02:22;95626.31;;;22.14;43.26
31337;BME280;22846;42.654;23.314;2023-02-15T02:04:54;95634.91;;;22.12;43.00
31337;BME280;22846;42.654;23.314;2023-02-15T02:07:27;95628.28;;;22.10;42.90
31337;BME280;22846;42.654;23.314;2023-02-15T02:09:52;95609.69;;;21.98;42.97
31337;BME280;22846;42.654;23.314;2023-02-15T02:12:20;95618.59;;;22.05;43.19
31337;BME280;22846;42.654;23.314;2023-02-15T02:14:47;95628.28;;;22.10;42.82
31337;BME280;22846;42.654;23.314;2023-02-15T02:36:19;95647.38;;;22.03;43.02
31337;BME280;22846;42.654;23.314;2023-02-15T02:46:38;95637.28;;;22.03;43.09
31337;BME280;22846;42.654;23.314;2023-02-15T02:49:06;95637.28;;;22.00;43.05
31337;BME280;22846;42.654;23.314;2023-02-15T02:51:31;95641.19;;;21.99;43.22
31337;BME280;22846;42.654;23.314;2023-02-15T02:54:00;95632.28;;;21.88;43.10
31337;BME280;22846;42.654;23.314;2023-02-15T02:56:40;95650.13;;;21.96;43.37
31337;BME280;22846;42.654;23.314;2023-02-15T02:59:12;95652.88;;;21.96;43.05
31337;BME280;22846;42.654;23.314;2023-02-15T03:01:48;95654.03;;;21.95;43.06
31337;BME280;22846;42.654;23.314;2023-02-15T03:04:21;95654.03;;;21.95;43.23
31337;BME280;22846;42.654;23.314;2023-02-15T03:07:01;95655.19;;;21.94;43.28
31337;BME280;22846;42.654;23.314;2023-02-15T03:09:39;95661.44;;;21.94;43.21
31337;BME280;22846;42.654;23.314;2023-02-15T03:12:11;95661.81;;;21.93;43.07
31337;BME280;22846;42.654;23.314;2023-02-15T03:14:40;95664.16;;;21.94;43.04
31337;BME280;22846;42.654;23.314;2023-02-15T03:17:07;95657.56;;;21.85;43.03
31337;BME280;22846;42.654;23.314;2023-02-15T03:19:35;95668.41;;;21.92;43.24
31337;BME280;22846;42.654;23.314;2023-02-15T03:22:05;95662.97;;;21.92;43.08
31337;BME280;22846;42.654;23.314;2023-02-15T03:24:56;95667.66;;;21.91;43.47
31337;BME280;22846;42.654;23.314;2023-02-15T03:27:32;95672.72;;;21.89;43.25
31337;BME280;22846;42.654;23.314;2023-02-15T03:30:00;95667.66;;;21.91;43.35
31337;BME280;22846;42.654;23.314;2023-02-15T03:32:29;95667.28;;;21.86;43.21
31337;BME280;22846;42.654;23.314;2023-02-15T03:34:56;95667.28;;;21.89;43.24
31337;BME280;22846;42.654;23.314;2023-02-15T03:37:43;95655.66;;;21.82;43.48
31337;BME280;22846;42.654;23.314;2023-02-15T03:40:28;95659.91;;;21.83;43.27
31337;BME280;22846;42.654;23.314;2023-02-15T03:46:32;95659.13;;;21.86;43.71
31337;BME280;22846;42.654;23.314;2023-02-15T03:49:04;95666.91;;;21.84;43.46
31337;BME280;22846;42.654;23.314;2023-02-15T03:51:35;95652.94;;;21.82;43.67
31337;BME280;22846;42.654;23.314;2023-02-15T03:54:30;95668.44;;;21.85;43.47
31337;BME280;22846;42.654;23.314;2023-02-15T03:57:19;95666.91;;;21.84;43.62
31337;BME280;22846;42.654;23.314;2023-02-15T04:00:12;95670.44;;;21.81;43.21
31337;BME280;22846;42.654;23.314;2023-02-15T04:05:42;95665.00;;;21.81;43.58
31337;BME280;22846;42.654;23.314;2023-02-15T04:08:08;95666.09;;;21.90;43.63
31337;BME280;22846;42.654;23.314;2023-02-15T04:10:34;95660.50;;;22.22;43.26
31337;BME280;22846;42.654;23.314;2023-02-15T04:13:19;95672.78;;;22.54;42.58
31337;BME280;22846;42.654;23.314;2023-02-15T04:15:45;95685.06;;;22.76;42.07
31337;BME280;22846;42.654;23.314;2023-02-15T04:21:13;95661.06;;;23.08;40.93
31337;BME280;22846;42.654;23.314;2023-02-15T04:23:57;95682.56;;;23.39;40.55
31337;BME280;22846;42.654;23.314;2023-02-15T04:26:41;95685.13;;;23.56;40.53
31337;BME280;22846;42.654;23.314;2023-02-15T04:29:07;95689.28;;;23.68;40.41
31337;BME280;22846;42.654;23.314;2023-02-15T04:31:32;95700.06;;;23.82;40.05
31337;BME280;22846;42.654;23.314;2023-02-15T04:33:57;95694.94;;;23.87;39.58
31337;BME280;22846;42.654;23.314;2023-02-15T04:36:23;95699.88;;;23.99;39.90
31337;BME280;22846;42.654;23.314;2023-02-15T04:38:48;95695.50;;;24.05;39.42
31337;BME280;22846;42.654;23.314;2023-02-15T04:41:14;95698.94;;;24.12;39.45
31337;BME280;22846;42.654;23.314;2023-02-15T04:43:39;95712.03;;;24.24;39.44
31337;BME280;22846;42.654;23.314;2023-02-15T04:46:04;95701.78;;;24.32;39.19
31337;BME280;22846;42.654;23.314;2023-02-15T04:48:30;95699.75;;;24.39;38.96
31337;BME280;22846;42.654;23.314;2023-02-15T04:50:55;95697.38;;;24.45;38.81
31337;BME280;22846;42.654;23.314;2023-02-15T04:53:21;95694.09;;;24.53;38.70
31337;BME280;22846;42.654;23.314;2023-02-15T04:55:46;95696.34;;;24.62;38.40
31337;BME280;22846;42.654;23.314;2023-02-15T04:58:12;95699.34;;;24.67;38.30
31337;BME280;22846;42.654;23.314;2023-02-15T05:00:37;95699.66;;;24.73;38.98
31337;BME280;22846;42.654;23.314;2023-02-15T05:03:02;95709.84;;;24.72;39.74
31337;BME280;22846;42.654;23.314;2023-02-15T05:05:28;95714.28;;;24.63;41.18
31337;BME280;22846;42.654;23.314;2023-02-15T05:07:53;95709.31;;;24.54;40.71
31337;BME280;22846;42.654;23.314;2023-02-15T05:10:19;95705.03;;;24.53;40.44
31337;BME280;22846;42.654;23.314;2023-02-15T05:12:44;95717.88;;;24.56;40.77
31337;BME280;22846;42.654;23.314;2023-02-15T05:15:10;95721.81;;;24.55;40.70
31337;BME280;22846;42.654;23.314;2023-02-15T05:17:36;95718.25;;;24.58;40.53
31337;BME280;22846;42.654;23.314;2023-02-15T05:20:02;95718.25;;;24.58;40.91
31337;BME280;22846;42.654;23.314;2023-02-15T05:22:27;95730.72;;;24.59;41.22
31337;BME280;22846;42.654;23.314;2023-02-15T05:24:52;95724.91;;;24.57;41.28
31337;BME280;22846;42.654;23.314;2023-02-15T05:27:36;95735.00;;;24.60;41.07
31337;BME280;22846;42.654;23.314;2023-02-15T05:30:20;95731.88;;;24.62;41.19
31337;BME280;22846;42.654;23.314;2023-02-15T05:32:46;95737.03;;;24.56;41.59
31337;BME280;22846;42.654;23.314;2023-02-15T05:35:13;95741.31;;;24.57;41.00
31337;BME280;22846;42.654;23.314;2023-02-15T05:37:39;95751.06;;;24.58;40.69
31337;BME280;22846;42.654;23.314;2023-02-15T05:40:05;95751.88;;;24.55;40.71
31337;BME280;22846;42.654;23.314;2023-02-15T05:42:31;95743.34;;;24.50;37.55
31337;BME280;22846;42.654;23.314;2023-02-15T05:44:56;95745.75;;;24.44;39.92
31337;BME280;22846;42.654;23.314;2023-02-15T05:47:22;95745.88;;;24.34;39.64
31337;BME280;22846;42.654;23.314;2023-02-15T05:49:47;95747.19;;;24.22;39.85
31337;BME280;22846;42.654;23.314;2023-02-15T05:52:12;95744.94;;;24.14;40.51
31337;BME280;22846;42.654;23.314;2023-02-15T05:54:38;95744.28;;;24.03;40.48
31337;BME280;22846;42.654;23.314;2023-02-15T05:57:03;95753.75;;;23.95;41.01
31337;BME280;22846;42.654;23.314;2023-02-15T05:59:28;95746.44;;;23.85;41.50
31337;BME280;22846;42.654;23.314;2023-02-15T06:01:54;95746.94;;;23.77;41.06
31337;BME280;22846;42.654;23.314;2023-02-15T06:04:20;95750.47;;;23.70;41.34
31337;BME280;22846;42.654;23.314;2023-02-15T06:06:45;95754.06;;;23.60;42.01
31337;BME280;22846;42.654;23.314;2023-02-15T06:09:12;95749.88;;;23.52;41.67
31337;BME280;22846;42.654;23.314;2023-02-15T06:11:37;95753.44;;;23.49;42.12
31337;BME280;22846;42.654;23.314;2023-02-15T06:14:03;95748.00;;;23.42;41.99
31337;BME280;22846;42.654;23.314;2023-02-15T06:16:28;95753.50;;;23.39;42.40
31337;BME280;22846;42.654;23.314;2023-02-15T06:18:54;95744.63;;;23.31;42.42
31337;BME280;22846;42.654;23.314;2023-02-15T06:21:19;95757.88;;;23.29;42.13
31337;BME280;22846;42.654;23.314;2023-02-15T06:23:45;95752.47;;;23.26;42.62
31337;BME280;22846;42.654;23.314;2023-02-15T06:26:10;95754.47;;;23.18;42.62
31337;BME280;22846;42.654;23.314;2023-02-15T06:28:36;95755.63;;;23.17;42.37
31337;BME280;22846;42.654;23.314;2023-02-15T06:31:03;95765.03;;;23.13;42.44
31337;BME280;22846;42.654;23.314;2023-02-15T06:33:28;95754.94;;;23.10;42.71
31337;BME280;22846;42.654;23.314;2023-02-15T06:35:55;95754.56;;;23.08;42.82
31337;BME280;22846;42.654;23.314;2023-02-15T06:38:21;95756.91;;;23.06;42.74
31337;BME280;22846;42.654;23.314;2023-02-15T06:40:47;95763.53;;;23.02;42.67
31337;BME280;22846;42.654;23.314;2023-02-15T06:43:12;95754.19;;;22.99;42.98
31337;BME280;22846;42.654;23.314;2023-02-15T06:45:37;95762.00;;;22.97;42.61
31337;BME280;22846;42.654;23.314;2023-02-15T06:48:03;95754.22;;;22.96;42.72
31337;BME280;22846;42.654;23.314;2023-02-15T06:50:32;95753.47;;;22.92;42.75
31337;BME280;22846;42.654;23.314;2023-02-15T06:52:58;95758.16;;;22.91;42.89
31337;BME280;22846;42.654;23.314;2023-02-15T06:55:24;95750.03;;;22.84;42.91
31337;BME280;22846;42.654;23.314;2023-02-15T06:57:50;95761.66;;;22.88;42.93
31337;BME280;22846;42.654;23.314;2023-02-15T07:00:15;95754.69;;;22.84;42.74
31337;BME280;22846;42.654;23.314;2023-02-15T07:02:41;95765.22;;;22.85;42.80
31337;BME280;22846;42.654;23.314;2023-02-15T07:05:06;95757.41;;;22.84;42.59
31337;BME280;22846;42.654;23.314;2023-02-15T07:07:32;95757.03;;;22.82;42.73
31337;BME280;22846;42.654;23.314;2023-02-15T07:09:57;95764.44;;;22.81;43.07
31337;BME280;22846;42.654;23.314;2023-02-15T07:12:22;95760.97;;;22.81;43.26
31337;BME280;22846;42.654;23.314;2023-02-15T07:15:07;95756.66;;;22.83;43.31
31337;BME280;22846;42.654;23.314;2023-02-15T07:17:35;95757.03;;;22.85;43.41
31337;BME280;22846;42.654;23.314;2023-02-15T07:20:01;95760.53;;;22.86;43.48
31337;BME280;22846;42.654;23.314;2023-02-15T07:22:26;95744.25;;;22.75;43.17
31337;BME280;22846;42.654;23.314;2023-02-15T07:24:52;95766.75;;;22.86;43.01
31337;BME280;22846;42.654;23.314;2023-02-15T07:27:20;95770.59;;;22.92;43.39
31337;BME280;22846;42.654;23.314;2023-02-15T07:29:46;95773.72;;;22.94;43.78
31337;BME280;22846;42.654;23.314;2023-02-15T07:32:11;95769.78;;;22.95;43.28
31337;BME280;22846;42.654;23.314;2023-02-15T07:34:36;95760.84;;;22.95;43.32
31337;BME280;22846;42.654;23.314;2023-02-15T07:37:02;95758.50;;;22.97;43.48
31337;BME280;22846;42.654;23.314;2023-02-15T07:39:27;95754.97;;;23.00;42.80
31337;BME280;22846;42.654;23.314;2023-02-15T07:41:53;95756.13;;;23.02;43.08
31337;BME280;22846;42.654;23.314;2023-02-15T07:44:18;95752.22;;;23.03;42.99
31337;BME280;22846;42.654;23.314;2023-02-15T07:46:44;95746.41;;;23.05;42.78
31337;BME280;22846;42.654;23.314;2023-02-15T07:49:09;95747.53;;;23.07;43.15
31337;BME280;22846;42.654;23.314;2023-02-15T07:51:35;95746.38;;;23.08;42.84
31337;BME280;22846;42.654;23.314;2023-02-15T07:54:00;95748.69;;;23.09;42.83
31337;BME280;22846;42.654;23.314;2023-02-15T07:56:25;95747.94;;;23.09;42.55
31337;BME280;22846;42.654;23.314;2023-02-15T07:58:51;95742.84;;;23.08;42.65
31337;BME280;22846;42.654;23.314;2023-02-15T08:03:50;95730.84;;;22.98;42.68
31337;BME280;22846;42.654;23.314;2023-02-15T08:06:15;95745.19;;;23.09;42.57
31337;BME280;22846;42.654;23.314;2023-02-15T08:08:41;95744.06;;;23.07;42.36
31337;BME280;22846;42.654;23.314;2023-02-15T08:11:20;95757.69;;;23.07;42.69
31337;BME280;22846;42.654;23.314;2023-02-15T08:18:57;95760.41;;;23.03;42.91
31337;BME280;22846;42.654;23.314;2023-02-15T08:21:26;95761.59;;;23.02;43.21
31337;BME280;22846;42.654;23.314;2023-02-15T08:23:52;95760.41;;;23.00;43.51
31337;BME280;22846;42.654;23.314;2023-02-15T08:26:18;95765.88;;;23.00;42.57
31337;BME280;22846;42.654;23.314;2023-02-15T08:28:43;95758.09;;;22.98;42.67
31337;BME280;22846;42.654;23.314;2023-02-15T08:31:13;95766.28;;;22.98;42.48
31337;BME280;22846;42.654;23.314;2023-02-15T08:33:41;95778.34;;;22.97;42.59
31337;BME280;22846;42.654;23.314;2023-02-15T08:36:11;95763.19;;;22.93;42.41
31337;BME280;22846;42.654;23.314;2023-02-15T08:38:37;95760.44;;;22.96;42.64
31337;BME280;22846;42.654;23.314;2023-02-15T08:41:11;95758.13;;;22.95;42.22
31337;BME280;22846;42.654;23.314;2023-02-15T08:43:37;95767.50;;;22.90;43.54
31337;BME280;22846;42.654;23.314;2023-02-15T08:46:03;95769.44;;;22.93;43.26
31337;BME280;22846;42.654;23.314;2023-02-15T08:48:28;95768.69;;;22.89;43.98
31337;BME280;22846;42.654;23.314;2023-02-15T08:50:54;95771.41;;;22.89;43.12
31337;BME280;22846;42.654;23.314;2023-02-15T08:53:19;95772.56;;;22.88;43.21
31337;BME280;22846;42.654;23.314;2023-02-15T08:55:47;95769.09;;;22.88;43.61
31337;BME280;22846;42.654;23.314;2023-02-15T08:58:12;95771.44;;;22.86;43.38
31337;BME280;22846;42.654;23.314;2023-02-15T09:00:38;95770.66;;;22.85;43.04
31337;BME280;22846;42.654;23.314;2023-02-15T09:03:03;95771.84;;;22.84;43.44
31337;BME280;22846;42.654;23.314;2023-02-15T09:05:29;95752.47;;;22.68;43.14
31337;BME280;22846;42.654;23.314;2023-02-15T09:07:54;95769.50;;;22.79;43.12
31337;BME280;22846;42.654;23.314;2023-02-15T09:10:19;95767.59;;;22.76;42.88
31337;BME280;22846;42.654;23.314;2023-02-15T09:12:45;95780.41;;;22.79;43.07
31337;BME280;22846;42.654;23.314;2023-02-15T09:15:10;95768.38;;;22.77;43.27
31337;BME280;22846;42.654;23.314;2023-02-15T09:17:36;95769.91;;;22.78;43.11
31337;BME280;22846;42.654;23.314;2023-02-15T09:20:01;95771.84;;;22.77;42.87
31337;BME280;22846;42.654;23.314;2023-02-15T09:22:27;95763.31;;;22.75;43.20
31337;BME280;22846;42.654;23.314;2023-02-15T09:24:53;95768.00;;;22.75;43.14
31337;BME280;22846;42.654;23.314;2023-02-15T09:27:18;95768.41;;;22.73;42.95
31337;BME280;22846;42.654;23.314;2023-02-15T09:29:44;95766.84;;;22.72;42.84
31337;BME280;22846;42.654;23.314;2023-02-15T09:32:13;95777.75;;;22.72;42.98
31337;BME280;22846;42.654;23.314;2023-02-15T09:34:38;95760.66;;;22.65;42.89
31337;BME280;22846;42.654;23.314;2023-02-15T09:37:05;95773.47;;;22.71;42.68
31337;BME280;22846;42.654;23.314;2023-02-15T09:39:30;95754.88;;;22.59;43.03
31337;BME280;22846;42.654;23.314;2023-02-15T09:42:03;95770.72;;;22.71;42.95
31337;BME280;22846;42.654;23.314;2023-02-15T10:09:30;95763.28;;;22.82;42.92
31337;BME280;22846;42.654;23.314;2023-02-15T10:20:13;95745.97;;;23.53;41.45
31337;BME280;22846;42.654;23.314;2023-02-15T10:28:44;95745.31;;;23.83;40.69
31337;BME280;22846;42.654;23.314;2023-02-15T10:41:52;95729.31;;;24.18;40.01
31337;BME280;22846;42.654;23.314;2023-02-15T11:06:08;95708.91;;;24.56;39.46
31337;BME280;22846;42.654;23.314;2023-02-15T11:09:04;95702.66;;;24.55;39.73
31337;BME280;22846;42.654;23.314;2023-02-15T11:11:41;95706.03;;;24.66;39.55
31337;BME280;22846;42.654;23.314;2023-02-15T11:14:15;95702.50;;;24.66;39.35
31337;BME280;22846;42.654;23.314;2023-02-15T11:16:44;95709.38;;;24.77;39.30
31337;BME280;22846;42.654;23.314;2023-02-15T11:19:23;95700.81;;;24.75;39.21
31337;BME280;22846;42.654;23.314;2023-02-15T11:21:53;95707.41;;;24.77;39.09
31337;BME280;22846;42.654;23.314;2023-02-15T11:24:21;95704.19;;;24.82;39.34
31337;BME280;22846;42.654;23.314;2023-02-15T11:29:34;95693.56;;;24.88;39.44
31337;BME280;22846;42.654;23.314;2023-02-15T11:34:40;95688.03;;;24.91;39.00
31337;BME280;22846;42.654;23.314;2023-02-15T11:37:18;95697.38;;;24.94;38.38
31337;BME280;22846;42.654;23.314;2023-02-15T11:39:44;95684.13;;;24.92;37.96
31337;BME280;22846;42.654;23.314;2023-02-15T11:42:20;95698.09;;;24.98;37.61
31337;BME280;22846;42.654;23.314;2023-02-15T11:45:06;95693.00;;;25.00;38.20
31337;BME280;22846;42.654;23.314;2023-02-15T11:47:39;95664.69;;;24.87;38.53
31337;BME280;22846;42.654;23.314;2023-02-15T11:50:05;95681.16;;;25.06;38.38
31337;BME280;22846;42.654;23.314;2023-02-15T11:52:31;95673.31;;;25.08;38.23
31337;BME280;22846;42.654;23.314;2023-02-15T11:54:57;95674.06;;;25.12;38.40
31337;BME280;22846;42.654;23.314;2023-02-15T11:57:36;95645.72;;;24.99;38.45
31337;BME280;22846;42.654;23.314;2023-02-15T12:00:12;95653.47;;;25.04;38.75
31337;BME280;22846;42.654;23.314;2023-02-15T12:02:44;95668.91;;;25.18;38.46
31337;BME280;22846;42.654;23.314;2023-02-15T12:05:16;95659.91;;;25.17;38.84
31337;BME280;22846;42.654;23.314;2023-02-15T12:07:46;95650.63;;;25.11;33.42
31337;BME280;22846;42.654;23.314;2023-02-15T12:10:24;95661.25;;;25.06;34.75
31337;BME280;22846;42.654;23.314;2023-02-15T12:13:10;95655.06;;;25.02;35.45
31337;BME280;22846;42.654;23.314;2023-02-15T12:15:37;95647.56;;;25.06;36.13
31337;BME280;22846;42.654;23.314;2023-02-15T12:18:03;95645.97;;;25.08;36.44
31337;BME280;22846;42.654;23.314;2023-02-15T12:20:32;95652.94;;;25.13;36.82
31337;BME280;22846;42.654;23.314;2023-02-15T12:23:01;95641.19;;;25.16;36.91
31337;BME280;22846;42.654;23.314;2023-02-15T12:25:39;95648.13;;;25.20;36.92
31337;BME280;22846;42.654;23.314;2023-02-15T12:30:53;95636.22;;;25.30;37.40
31337;BME280;22846;42.654;23.314;2023-02-15T12:33:31;95645.91;;;25.35;37.72
31337;BME280;22846;42.654;23.314;2023-02-15T12:36:30;95638.03;;;25.37;37.80
31337;BME280;22846;42.654;23.314;2023-02-15T12:41:44;95627.75;;;25.44;37.50
31337;BME280;22846;42.654;23.314;2023-02-15T12:44:16;95621.44;;;25.47;38.11
31337;BME280;22846;42.654;23.314;2023-02-15T12:49:21;95612.66;;;25.56;37.75
31337;BME280;22846;42.654;23.314;2023-02-15T12:51:55;95610.28;;;25.58;37.90
31337;BME280;22846;42.654;23.314;2023-02-15T12:54:26;95612.59;;;25.59;37.75
31337;BME280;22846;42.654;23.314;2023-02-15T12:56:53;95606.34;;;25.59;38.00
31337;BME280;22846;42.654;23.314;2023-02-15T12:59:19;95610.34;;;25.54;37.72
31337;BME280;22846;42.654;23.314;2023-02-15T13:01:48;95607.69;;;25.51;38.06
31337;BME280;22846;42.654;23.314;2023-02-15T13:04:33;95608.72;;;25.57;38.18
31337;BME280;22846;42.654;23.314;2023-02-15T13:07:01;95609.09;;;25.59;38.07
31337;BME280;22846;42.654;23.314;2023-02-15T13:14:36;95591.41;;;25.63;38.42
31337;BME280;22846;42.654;23.314;2023-02-15T13:17:04;95598.34;;;25.67;38.30
31337;BME280;22846;42.654;23.314;2023-02-15T13:19:42;95594.56;;;25.62;38.57
31337;BME280;22846;42.654;23.314;2023-02-15T13:22:35;95589.94;;;25.59;38.45
31337;BME280;22846;42.654;23.314;2023-02-15T13:25:01;95598.00;;;25.65;37.98
31337;BME280;22846;42.654;23.314;2023-02-15T13:27:38;95588.59;;;25.66;37.99
31337;BME280;22846;42.654;23.314;2023-02-15T13:30:17;95590.13;;;25.67;37.87
31337;BME280;22846;42.654;23.314;2023-02-15T13:32:45;95600.94;;;25.74;37.79
31337;BME280;22846;42.654;23.314;2023-02-15T13:35:16;95596.66;;;25.73;37.89
31337;BME280;22846;42.654;23.314;2023-02-15T13:37:54;95598.28;;;25.71;37.96
31337;BME280;22846;42.654;23.314;2023-02-15T13:40:53;95604.50;;;25.71;38.37
31337;BME280;22846;42.654;23.314;2023-02-15T13:43:33;95595.97;;;25.69;38.27
31337;BME280;22846;42.654;23.314;2023-02-15T13:59:57;95620.06;;;25.78;38.01
31337;BME280;22846;42.654;23.314;2023-02-15T14:11:02;95607.59;;;25.93;38.10
31337;BME280;22846;42.654;23.314;2023-02-15T14:19:57;95633.59;;;26.04;37.64
31337;BME280;22846;42.654;23.314;2023-02-15T14:22:36;95640.47;;;26.12;37.67
31337;BME280;22846;42.654;23.314;2023-02-15T14:27:52;95639.81;;;26.24;37.26
31337;BME280;22846;42.654;23.314;2023-02-15T14:30:20;95642.38;;;26.31;37.06
31337;BME280;22846;42.654;23.314;2023-02-15T14:32:50;95644.63;;;26.36;34.99
31337;BME280;22846;42.654;23.314;2023-02-15T14:35:20;95640.66;;;26.41;35.62
31337;BME280;22846;42.654;23.314;2023-02-15T14:40:54;95634.84;;;26.54;35.28
31337;BME280;22846;42.654;23.314;2023-02-15T14:49:25;95627.91;;;26.66;35.97
31337;BME280;22846;42.654;23.314;2023-02-15T14:56:43;95625.59;;;26.64;36.05
31337;BME280;22846;42.654;23.314;2023-02-15T15:04:40;95639.22;;;26.52;34.51
31337;BME280;22846;42.654;23.314;2023-02-15T15:07:20;95635.53;;;26.43;34.80
31337;BME280;22846;42.654;23.314;2023-02-15T15:12:54;95636.75;;;26.22;35.46
31337;BME280;22846;42.654;23.314;2023-02-15T15:34:34;95641.50;;;25.60;37.12
31337;BME280;22846;42.654;23.314;2023-02-15T15:50:32;95667.75;;;25.58;37.42
31337;BME280;22846;42.654;23.314;2023-02-15T15:52:59;95658.56;;;25.48;37.32
31337;BME280;22846;42.654;23.314;2023-02-15T15:55:29;95650.44;;;25.45;37.24
31337;BME280;22846;42.654;23.314;2023-02-15T15:57:58;95655.03;;;25.48;37.22
31337;BME280;22846;42.654;23.314;2023-02-15T16:00:32;95661.31;;;25.48;37.52
31337;BME280;22846;42.654;23.314;2023-02-15T16:02:58;95662.84;;;25.49;37.11
31337;BME280;22846;42.654;23.314;2023-02-15T16:05:24;95659.34;;;25.49;37.23
31337;BME280;22846;42.654;23.314;2023-02-15T16:07:50;95664.03;;;25.48;37.37
31337;BME280;22846;42.654;23.314;2023-02-15T16:10:24;95666.34;;;25.50;37.48
31337;BME280;22846;42.654;23.314;2023-02-15T16:12:50;95662.50;;;25.47;37.48
31337;BME280;22846;42.654;23.314;2023-02-15T16:15:22;95655.94;;;25.41;38.16
31337;BME280;22846;42.654;23.314;2023-02-15T16:17:54;95665.25;;;25.47;38.11
31337;BME280;22846;42.654;23.314;2023-02-15T16:20:36;95664.03;;;25.48;38.26
31337;BME280;22846;42.654;23.314;2023-02-15T16:28:36;95667.19;;;25.47;38.16
31337;BME280;22846;42.654;23.314;2023-02-15T16:31:21;95638.25;;;25.26;38.06
31337;BME280;22846;42.654;23.314;2023-02-15T16:33:53;95666.13;;;25.41;38.23
31337;BME280;22846;42.654;23.314;2023-02-15T16:36:26;95662.63;;;25.40;38.41
31337;BME280;22846;42.654;23.314;2023-02-15T16:41:23;95693.50;;;25.41;39.40
31337;BME280;22846;42.654;23.314;2023-02-15T16:43:50;95686.41;;;25.43;39.64
31337;BME280;22846;42.654;23.314;2023-02-15T16:46:43;95688.31;;;25.46;39.82
31337;BME280;22846;42.654;23.314;2023-02-15T16:49:16;95685.50;;;25.50;39.57
31337;BME280;22846;42.654;23.314;2023-02-15T16:51:43;95685.44;;;25.53;40.01
31337;BME280;22846;42.654;23.314;2023-02-15T16:54:19;95656.66;;;25.45;39.68